Time;durP1;ratioP1;P1;durP2;ratioP2;P2;SDS_P1;SDS_P2;PMS_P1;PMS_P2;Temp;Humidity;BMP_temperature;BMP_pressure;BME280_temperature;BME280_humidity;BME280_pressure;Samples;Min_cycle;Max_cycle;Signal;HPM_P1;HPM_P2
2022/04/19 00:01:59;;;;;;;2.10;1.58;;;;;;;;;;5057857;28;20076;-82
2022/04/19 00:04:27;;;;;;;3.67;1.73;;;;;;;;;;5057360;28;20052;-81
2022/04/19 00:06:55;;;;;;;2.53;1.55;;;;;;;;;;5051399;28;20049;-82
2022/04/19 00:09:24;;;;;;;2.65;1.52;;;;;;;;;;5035912;28;20080;-82
2022/04/19 00:11:52;;;;;;;2.63;1.63;;;;;;;;;;5034107;28;20504;-82
2022/04/19 00:14:20;;;;;;;2.40;1.60;;;;;;;;;;5034242;28;20107;-82
2022/04/19 00:16:50;;;;;;;3.72;2.10;;;;;;;;;;5034748;28;20072;-82
2022/04/19 00:19:18;;;;;;;2.65;1.67;;;;;;;;;;5034681;28;20147;-82
2022/04/19 00:21:47;;;;;;;3.35;1.40;;;;;;;;;;5036307;28;20052;-82
2022/04/19 00:24:15;;;;;;;3.20;1.60;;;;;;;;;;5035175;28;20049;-82
2022/04/19 00:26:44;;;;;;;2.72;1.55;;;;;;;;;;5035866;28;20113;-82
2022/04/19 00:29:12;;;;;;;7.13;1.60;;;;;;;;;;5035506;28;20045;-82
2022/04/19 00:31:40;;;;;;;2.65;1.35;;;;;;;;;;5035432;28;20084;-82
2022/04/19 00:34:10;;;;;;;2.10;1.42;;;;;;;;;;5035947;28;20052;-82
2022/04/19 00:36:38;;;;;;;2.40;1.40;;;;;;;;;;5049272;28;20112;-82
2022/04/19 00:39:07;;;;;;;2.20;1.40;;;;;;;;;;5055583;28;20041;-82
2022/04/19 00:41:35;;;;;;;4.38;1.48;;;;;;;;;;5048920;28;20044;-82
2022/04/19 00:44:03;;;;;;;3.75;1.50;;;;;;;;;;5056259;28;20110;-82
2022/04/19 00:46:32;;;;;;;2.80;1.45;;;;;;;;;;5056190;28;20080;-82
2022/04/19 00:49:00;;;;;;;3.08;1.38;;;;;;;;;;5054920;28;20052;-82
2022/04/19 00:51:31;;;;;;;1.88;1.40;;;;;;;;;;5036838;28;20080;-82
2022/04/19 00:54:00;;;;;;;2.45;1.73;;;;;;;;;;5036225;28;20111;-82
2022/04/19 00:56:30;;;;;;;2.17;1.50;;;;;;;;;;5036999;28;20052;-82
2022/04/19 00:58:58;;;;;;;3.75;1.73;;;;;;;;;;5035565;28;20057;-82
2022/04/19 01:01:27;;;;;;;2.53;1.50;;;;;;;;;;5036896;28;20099;-82
2022/04/19 01:03:58;;;;;;;5.35;1.48;;;;;;;;;;5037157;28;20270;-82
2022/04/19 01:06:26;;;;;;;3.75;1.83;;;;;;;;;;5037039;28;20302;-82
2022/04/19 01:08:56;;;;;;;3.25;1.42;;;;;;;;;;5038079;28;20105;-82
2022/04/19 01:14:10;;;;;;;2.53;1.50;;;;;;;;;;5057918;28;20087;-82
2022/04/19 01:16:40;;;;;;;3.40;1.80;;;;;;;;;;5058074;28;20060;-82
2022/04/19 01:19:12;;;;;;;3.85;1.55;;;;;;;;;;5057068;28;20160;-82
2022/04/19 01:21:45;;;;;;;5.13;1.58;;;;;;;;;;5058066;28;20083;-82
2022/04/19 01:24:18;;;;;;;2.05;1.50;;;;;;;;;;5057646;28;20045;-82
2022/04/19 01:26:47;;;;;;;3.67;1.65;;;;;;;;;;5058547;28;20053;-82
2022/04/19 01:29:15;;;;;;;3.58;1.50;;;;;;;;;;5056769;28;20071;-82
2022/04/19 01:31:44;;;;;;;3.28;1.65;;;;;;;;;;5052657;28;20042;-82
2022/04/19 01:34:13;;;;;;;3.90;1.52;;;;;;;;;;5041888;28;20045;-82
2022/04/19 01:36:41;;;;;;;2.75;1.65;;;;;;;;;;5057275;28;20048;-81
2022/04/19 01:39:12;;;;;;;3.80;1.90;;;;;;;;;;5052023;28;20135;-82
2022/04/19 01:41:41;;;;;;;2.85;1.70;;;;;;;;;;5050906;28;20075;-82
2022/04/19 01:44:09;;;;;;;1.95;1.48;;;;;;;;;;5050160;28;20536;-82
2022/04/19 01:46:39;;;;;;;3.55;1.40;;;;;;;;;;5050823;28;20106;-82
2022/04/19 01:49:08;;;;;;;3.45;1.55;;;;;;;;;;5048536;28;20404;-82
2022/04/19 01:51:38;;;;;;;3.00;1.42;;;;;;;;;;5051093;28;20080;-82
2022/04/19 01:54:06;;;;;;;2.22;1.30;;;;;;;;;;5050408;28;20140;-82
2022/04/19 01:56:36;;;;;;;3.60;1.70;;;;;;;;;;5050455;28;20063;-82
2022/04/19 01:59:06;;;;;;;2.85;1.40;;;;;;;;;;5049389;28;20500;-82
2022/04/19 02:01:35;;;;;;;3.28;1.45;;;;;;;;;;5050499;28;20488;-82
2022/04/19 02:04:03;;;;;;;3.65;1.63;;;;;;;;;;5050211;28;20114;-82
2022/04/19 02:06:32;;;;;;;2.78;1.52;;;;;;;;;;5046046;28;20092;-82
2022/04/19 02:09:03;;;;;;;4.32;1.98;;;;;;;;;;5030075;28;20053;-82
2022/04/19 02:11:31;;;;;;;1.70;1.50;;;;;;;;;;5033250;28;20128;-82
2022/04/19 02:14:01;;;;;;;2.50;1.60;;;;;;;;;;5033946;28;20064;-82
2022/04/19 02:16:29;;;;;;;7.88;1.75;;;;;;;;;;5033776;28;20103;-82
2022/04/19 02:18:58;;;;;;;2.97;1.77;;;;;;;;;;5033637;28;20045;-82
2022/04/19 02:21:26;;;;;;;2.65;1.35;;;;;;;;;;5035271;28;20053;-82
2022/04/19 02:23:54;;;;;;;4.53;1.50;;;;;;;;;;5033775;28;20049;-82
2022/04/19 02:26:24;;;;;;;1.95;1.38;;;;;;;;;;5033891;28;20314;-82
2022/04/19 02:28:52;;;;;;;3.40;1.65;;;;;;;;;;5033740;28;20056;-82
2022/04/19 02:31:22;;;;;;;3.08;1.17;;;;;;;;;;5033296;28;20085;-82
2022/04/19 02:33:50;;;;;;;2.65;1.45;;;;;;;;;;5033911;28;20084;-82
2022/04/19 02:36:19;;;;;;;3.15;2.00;;;;;;;;;;5044618;28;20085;-82
2022/04/19 02:38:47;;;;;;;4.10;1.40;;;;;;;;;;5052951;28;20099;-82
2022/04/19 02:41:15;;;;;;;2.53;1.52;;;;;;;;;;5051545;28;20408;-82
2022/04/19 02:43:44;;;;;;;3.00;1.73;;;;;;;;;;5053279;28;20109;-82
2022/04/19 02:46:13;;;;;;;2.20;1.42;;;;;;;;;;5053239;28;20197;-82
2022/04/19 02:48:43;;;;;;;2.33;1.70;;;;;;;;;;5048190;28;20140;-82
2022/04/19 02:51:12;;;;;;;4.93;1.83;;;;;;;;;;5032894;28;20132;-82
2022/04/19 02:53:40;;;;;;;4.32;1.90;;;;;;;;;;5033300;28;20045;-82
2022/04/19 02:56:08;;;;;;;5.03;1.67;;;;;;;;;;5032765;28;20045;-82
2022/04/19 02:58:37;;;;;;;2.38;1.52;;;;;;;;;;5051842;28;20087;-82
2022/04/19 03:01:09;;;;;;;3.60;1.63;;;;;;;;;;5053082;28;20084;-82
2022/04/19 03:03:37;;;;;;;3.58;2.22;;;;;;;;;;5053020;28;20057;-82
2022/04/19 03:06:09;;;;;;;3.42;1.70;;;;;;;;;;5052694;28;20065;-81
2022/04/19 03:08:38;;;;;;;5.03;2.30;;;;;;;;;;5052274;28;20111;-82
2022/04/19 03:11:07;;;;;;;6.95;2.30;;;;;;;;;;5052997;28;20053;-82
2022/04/19 03:13:36;;;;;;;5.32;2.47;;;;;;;;;;5049215;28;20084;-82
2022/04/19 03:16:10;;;;;;;5.47;2.28;;;;;;;;;;5032349;28;20400;-82
2022/04/19 03:18:38;;;;;;;9.43;2.33;;;;;;;;;;5031927;28;20059;-82
2022/04/19 03:21:07;;;;;;;5.57;1.95;;;;;;;;;;5032663;28;20144;-82
2022/04/19 03:29:09;;;;;;;3.72;1.90;;;;;;;;;;5051423;28;20076;-81
2022/04/19 03:31:38;;;;;;;4.80;1.50;;;;;;;;;;5040036;28;20176;-82
2022/04/19 03:34:07;;;;;;;5.45;1.83;;;;;;;;;;5049519;28;20053;-82
2022/04/19 03:36:35;;;;;;;4.28;1.38;;;;;;;;;;5052407;28;20076;-82
2022/04/19 03:39:05;;;;;;;2.45;1.73;;;;;;;;;;5051810;28;20045;-82
2022/04/19 03:41:33;;;;;;;3.95;1.80;;;;;;;;;;5052189;28;20392;-82
2022/04/19 03:44:02;;;;;;;3.55;1.60;;;;;;;;;;5052147;28;20511;-81
2022/04/19 03:46:30;;;;;;;4.00;2.05;;;;;;;;;;5051937;28;20140;-82
2022/04/19 03:48:58;;;;;;;6.25;1.98;;;;;;;;;;5043426;28;20041;-82
2022/04/19 03:51:28;;;;;;;2.97;1.80;;;;;;;;;;5032191;28;20050;-82
2022/04/19 03:54:00;;;;;;;2.60;1.40;;;;;;;;;;5032008;28;20081;-82
2022/04/19 03:56:30;;;;;;;3.03;1.42;;;;;;;;;;5031886;28;20089;-82
2022/04/19 03:58:58;;;;;;;2.95;1.77;;;;;;;;;;5046803;28;20085;-82
2022/04/19 04:01:27;;;;;;;2.95;1.88;;;;;;;;;;5051858;28;20065;-82
2022/04/19 04:03:55;;;;;;;4.28;1.55;;;;;;;;;;5051488;28;20053;-82
2022/04/19 04:06:25;;;;;;;2.45;1.50;;;;;;;;;;5032222;28;20057;-82
2022/04/19 04:08:53;;;;;;;3.58;1.73;;;;;;;;;;5031202;28;20073;-82
2022/04/19 04:11:22;;;;;;;4.07;1.60;;;;;;;;;;5031276;28;20124;-82
2022/04/19 04:13:51;;;;;;;3.92;1.80;;;;;;;;;;5031520;28;20136;-82
2022/04/19 04:16:20;;;;;;;2.80;1.60;;;;;;;;;;5031001;28;20128;-82
2022/04/19 04:18:48;;;;;;;4.55;1.70;;;;;;;;;;5030369;28;20099;-82
2022/04/19 04:21:16;;;;;;;5.18;1.85;;;;;;;;;;5030871;28;20063;-82
2022/04/19 04:23:45;;;;;;;3.90;1.52;;;;;;;;;;5031606;28;20081;-82
2022/04/19 04:26:13;;;;;;;5.20;1.77;;;;;;;;;;5030994;28;20041;-82
2022/04/19 04:28:41;;;;;;;4.65;1.90;;;;;;;;;;5030277;28;20065;-82
2022/04/19 04:31:11;;;;;;;4.45;1.60;;;;;;;;;;5031102;28;20073;-81
2022/04/19 04:33:39;;;;;;;3.85;1.52;;;;;;;;;;5030332;28;20493;-82
2022/04/19 04:36:08;;;;;;;4.18;1.50;;;;;;;;;;5040088;28;20145;-82
2022/04/19 04:38:37;;;;;;;3.20;1.83;;;;;;;;;;5046542;28;20140;-82
2022/04/19 04:41:08;;;;;;;5.43;1.80;;;;;;;;;;5031456;28;20045;-82
2022/04/19 04:43:37;;;;;;;6.13;1.60;;;;;;;;;;5031190;28;20069;-82
2022/04/19 04:51:41;;;;;;;4.18;1.73;;;;;;;;;;5030985;28;20100;-82
2022/04/19 04:54:10;;;;;;;2.83;1.70;;;;;;;;;;5030860;28;20085;-82
2022/04/19 04:56:38;;;;;;;4.13;1.50;;;;;;;;;;5031156;28;20092;-82
2022/04/19 04:59:06;;;;;;;2.72;1.60;;;;;;;;;;5029479;28;20124;-82
2022/04/19 05:01:34;;;;;;;4.15;1.67;;;;;;;;;;5031012;28;20049;-82
2022/04/19 05:04:04;;;;;;;3.47;1.52;;;;;;;;;;5030964;28;20049;-82
2022/04/19 05:06:33;;;;;;;3.10;1.50;;;;;;;;;;5030583;28;20133;-82
2022/04/19 05:09:01;;;;;;;2.55;1.58;;;;;;;;;;5030069;28;20042;-82
2022/04/19 05:11:29;;;;;;;3.58;1.88;;;;;;;;;;5030762;28;20191;-82
2022/04/19 05:13:58;;;;;;;6.50;1.42;;;;;;;;;;5030889;28;20077;-82
2022/04/19 05:16:29;;;;;;;3.85;2.00;;;;;;;;;;5030556;28;20046;-82
2022/04/19 05:18:58;;;;;;;4.80;2.00;;;;;;;;;;5030007;28;20054;-82
2022/04/19 05:21:28;;;;;;;4.35;1.88;;;;;;;;;;5030700;28;20061;-82
2022/04/19 05:23:56;;;;;;;5.45;1.88;;;;;;;;;;5030524;28;20477;-82
2022/04/19 05:26:28;;;;;;;3.85;1.48;;;;;;;;;;5039693;28;20053;-82
2022/04/19 05:28:56;;;;;;;6.95;2.05;;;;;;;;;;5050343;28;20049;-82
2022/04/19 05:31:25;;;;;;;2.88;1.90;;;;;;;;;;5031145;28;20056;-82
2022/04/19 05:33:53;;;;;;;6.18;2.00;;;;;;;;;;5030525;28;20397;-82
2022/04/19 05:36:23;;;;;;;4.70;1.80;;;;;;;;;;5041573;28;20127;-82
2022/04/19 05:38:53;;;;;;;2.92;1.77;;;;;;;;;;5043837;28;20045;-82
2022/04/19 05:41:21;;;;;;;3.55;1.60;;;;;;;;;;5029788;28;20531;-82
2022/04/19 05:43:50;;;;;;;3.67;1.80;;;;;;;;;;5030583;28;20103;-82
2022/04/19 05:46:20;;;;;;;4.50;1.83;;;;;;;;;;5032245;28;20056;-82
2022/04/19 05:48:49;;;;;;;7.25;2.20;;;;;;;;;;5033105;28;20447;-82
2022/04/19 05:51:17;;;;;;;7.60;2.10;;;;;;;;;;5033761;28;20463;-82
2022/04/19 05:53:46;;;;;;;4.78;2.28;;;;;;;;;;5034369;28;20103;-82
2022/04/19 05:56:15;;;;;;;9.10;2.47;;;;;;;;;;5033156;28;20115;-82
2022/04/19 05:58:44;;;;;;;2.95;2.05;;;;;;;;;;5047216;28;20049;-82
2022/04/19 06:01:12;;;;;;;7.38;1.90;;;;;;;;;;5052847;28;20497;-82
2022/04/19 06:06:26;;;;;;;3.95;1.95;;;;;;;;;;5033402;28;20060;-82
2022/04/19 06:08:55;;;;;;;4.25;2.47;;;;;;;;;;5032974;28;20053;-82
2022/04/19 06:11:24;;;;;;;3.65;2.20;;;;;;;;;;5033763;28;20045;-82
2022/04/19 06:13:53;;;;;;;4.63;2.58;;;;;;;;;;5033664;28;20468;-82
2022/04/19 06:16:21;;;;;;;4.80;2.42;;;;;;;;;;5033373;28;20053;-82
2022/04/19 06:18:50;;;;;;;4.03;1.95;;;;;;;;;;5032920;28;20080;-82
2022/04/19 06:21:18;;;;;;;15.38;3.17;;;;;;;;;;5033414;28;20045;-82
2022/04/19 06:23:46;;;;;;;5.65;2.42;;;;;;;;;;5033555;28;20087;-82
2022/04/19 06:26:14;;;;;;;4.05;1.90;;;;;;;;;;5033435;28;20132;-82
2022/04/19 06:28:44;;;;;;;4.85;2.70;;;;;;;;;;5032706;28;20101;-82
2022/04/19 06:31:13;;;;;;;6.28;3.00;;;;;;;;;;5034653;28;20054;-82
2022/04/19 06:33:41;;;;;;;4.72;2.17;;;;;;;;;;5049133;28;20106;-82
2022/04/19 06:36:10;;;;;;;4.07;2.30;;;;;;;;;;5052838;28;20153;-82
2022/04/19 06:38:38;;;;;;;4.00;1.85;;;;;;;;;;5051602;28;20037;-82
2022/04/19 06:41:11;;;;;;;9.77;2.25;;;;;;;;;;5053095;28;20061;-82
2022/04/19 06:43:39;;;;;;;4.32;2.00;;;;;;;;;;5053247;28;20088;-82
2022/04/19 06:46:09;;;;;;;5.15;2.40;;;;;;;;;;5052390;28;20092;-82
2022/04/19 06:48:37;;;;;;;3.65;1.92;;;;;;;;;;5052328;28;20045;-82
2022/04/19 06:51:09;;;;;;;4.38;2.63;;;;;;;;;;5053466;28;20106;-82
2022/04/19 06:53:58;;;;;;;2.58;1.92;;;;;;;;;;5054192;28;20056;-82
2022/04/19 06:56:26;;;;;;;3.28;1.98;;;;;;;;;;5033231;28;20564;-82
2022/04/19 06:58:56;;;;;;;5.53;2.05;;;;;;;;;;5032333;28;20497;-82
2022/04/19 07:01:26;;;;;;;6.50;2.00;;;;;;;;;;5032813;28;20103;-82
2022/04/19 07:03:54;;;;;;;5.38;2.33;;;;;;;;;;5033065;28;20468;-82
2022/04/19 07:06:23;;;;;;;2.97;2.10;;;;;;;;;;5032272;28;20093;-82
2022/04/19 07:08:51;;;;;;;5.07;2.17;;;;;;;;;;5032243;28;20077;-82
2022/04/19 07:11:20;;;;;;;4.93;2.85;;;;;;;;;;5032315;28;20424;-82
2022/04/19 07:13:48;;;;;;;5.22;2.25;;;;;;;;;;5032679;28;20057;-82
2022/04/19 07:16:17;;;;;;;5.10;2.42;;;;;;;;;;5032495;28;20088;-82
2022/04/19 07:18:46;;;;;;;7.22;2.20;;;;;;;;;;5031835;28;20513;-82
2022/04/19 07:27:07;;;;;;;5.80;2.75;;;;;;;;;;5048606;28;20088;-82
2022/04/19 07:29:36;;;;;;;6.50;2.63;;;;;;;;;;5040084;28;20045;-82
2022/04/19 07:32:06;;;;;;;6.15;2.67;;;;;;;;;;5032570;28;20084;-82
2022/04/19 07:34:36;;;;;;;8.00;2.17;;;;;;;;;;5032035;28;20068;-82
2022/04/19 07:37:05;;;;;;;4.85;2.55;;;;;;;;;;5050126;28;20053;-82
2022/04/19 07:39:34;;;;;;;4.72;2.30;;;;;;;;;;5031937;28;20053;-82
2022/04/19 07:42:02;;;;;;;5.88;2.67;;;;;;;;;;5032359;28;20519;-82
2022/04/19 07:44:32;;;;;;;6.93;2.53;;;;;;;;;;5032665;28;20080;-82
2022/04/19 07:47:00;;;;;;;5.00;2.55;;;;;;;;;;5032753;28;20053;-82
2022/04/19 07:49:36;;;;;;;12.55;2.50;;;;;;;;;;5031310;28;20073;-82
2022/04/19 07:52:05;;;;;;;6.32;3.42;;;;;;;;;;5031804;28;20131;-81
2022/04/19 07:54:33;;;;;;;7.97;2.95;;;;;;;;;;5032312;28;20088;-82
2022/04/19 07:57:02;;;;;;;5.22;2.33;;;;;;;;;;5032063;28;20053;-82
2022/04/19 07:59:31;;;;;;;6.63;3.03;;;;;;;;;;5031629;28;20105;-82
2022/04/19 08:01:59;;;;;;;4.68;2.53;;;;;;;;;;5032501;28;20057;-82
2022/04/19 08:04:28;;;;;;;4.28;2.78;;;;;;;;;;5032178;28;20046;-82
2022/04/19 08:07:04;;;;;;;7.20;2.70;;;;;;;;;;5032054;28;20049;-82
2022/04/19 08:09:32;;;;;;;4.78;2.80;;;;;;;;;;5030858;28;20080;-82
2022/04/19 08:12:01;;;;;;;7.03;3.05;;;;;;;;;;5032752;28;20059;-82
2022/04/19 08:14:30;;;;;;;5.40;2.92;;;;;;;;;;5031501;28;20049;-82
2022/04/19 08:16:58;;;;;;;5.03;2.92;;;;;;;;;;5031854;28;20057;-82
2022/04/19 08:19:27;;;;;;;4.75;3.13;;;;;;;;;;5031312;28;20060;-82
2022/04/19 08:21:57;;;;;;;5.43;2.78;;;;;;;;;;5033190;28;20107;-82
2022/04/19 08:24:27;;;;;;;5.60;2.72;;;;;;;;;;5033893;28;20050;-82
2022/04/19 08:26:56;;;;;;;6.63;3.33;;;;;;;;;;5033895;28;20048;-82
2022/04/19 08:29:25;;;;;;;6.07;2.90;;;;;;;;;;5035031;28;20059;-82
2022/04/19 08:31:54;;;;;;;9.88;2.63;;;;;;;;;;5038361;28;20135;-82
2022/04/19 08:34:22;;;;;;;6.80;3.13;;;;;;;;;;5037618;28;20049;-82
2022/04/19 08:36:51;;;;;;;4.43;2.83;;;;;;;;;;5048520;28;20049;-82
2022/04/19 08:39:20;;;;;;;5.90;3.08;;;;;;;;;;5036676;28;20049;-82
2022/04/19 08:41:51;;;;;;;5.72;3.20;;;;;;;;;;5044137;28;20052;-82
2022/04/19 08:44:19;;;;;;;7.40;3.70;;;;;;;;;;5057303;28;20076;-82
2022/04/19 08:46:49;;;;;;;8.30;3.75;;;;;;;;;;5057320;28;20108;-82
2022/04/19 08:49:18;;;;;;;6.47;3.60;;;;;;;;;;5055200;28;20111;-82
2022/04/19 08:51:46;;;;;;;7.85;3.40;;;;;;;;;;5054092;28;20048;-82
2022/04/19 08:59:48;;;;;;;7.05;3.60;;;;;;;;;;5030819;28;20042;-82
2022/04/19 09:02:23;;;;;;;8.23;3.38;;;;;;;;;;5031413;28;20415;-82
2022/04/19 09:04:52;;;;;;;7.18;3.72;;;;;;;;;;5030724;28;20084;-82
2022/04/19 09:07:22;;;;;;;5.28;3.15;;;;;;;;;;5031051;28;20087;-82
2022/04/19 09:09:59;;;;;;;8.38;3.90;;;;;;;;;;5030193;28;20053;-82
2022/04/19 09:12:29;;;;;;;6.63;3.22;;;;;;;;;;5049452;28;20055;-82
2022/04/19 09:14:59;;;;;;;5.07;2.63;;;;;;;;;;5051136;28;20052;-82
2022/04/19 09:17:32;;;;;;;5.63;3.25;;;;;;;;;;5050812;28;20136;-82
2022/04/19 09:20:10;;;;;;;6.78;3.45;;;;;;;;;;5052153;28;20055;-82
2022/04/19 09:22:39;;;;;;;6.57;3.78;;;;;;;;;;5037448;28;20551;-82
2022/04/19 09:25:15;;;;;;;6.35;3.90;;;;;;;;;;5054745;28;20459;-82
2022/04/19 09:27:45;;;;;;;5.75;3.47;;;;;;;;;;5049972;28;20049;-82
2022/04/19 09:30:17;;;;;;;5.97;3.33;;;;;;;;;;5035226;28;20046;-82
2022/04/19 09:33:02;;;;;;;5.85;3.15;;;;;;;;;;5034666;28;20500;-82
2022/04/19 09:35:30;;;;;;;6.43;3.43;;;;;;;;;;5039084;28;20424;-82
2022/04/19 09:38:00;;;;;;;6.93;3.20;;;;;;;;;;5039064;28;20100;-82
2022/04/19 09:40:28;;;;;;;6.63;2.95;;;;;;;;;;5034750;28;20056;-82
2022/04/19 09:42:59;;;;;;;8.13;3.80;;;;;;;;;;5034440;28;20433;-82
2022/04/19 09:45:29;;;;;;;5.32;3.08;;;;;;;;;;5034078;28;20054;-82
2022/04/19 09:47:58;;;;;;;6.65;3.13;;;;;;;;;;5034051;28;20049;-82
2022/04/19 09:50:27;;;;;;;5.78;3.13;;;;;;;;;;5034559;28;20049;-82
2022/04/19 09:52:56;;;;;;;7.55;3.55;;;;;;;;;;5034809;28;20084;-82
2022/04/19 09:55:24;;;;;;;6.55;3.30;;;;;;;;;;5034468;28;20057;-82
2022/04/19 09:57:53;;;;;;;8.75;4.05;;;;;;;;;;5040735;28;20048;-82
2022/04/19 10:00:23;;;;;;;6.03;3.22;;;;;;;;;;5054140;28;20049;-82
2022/04/19 10:08:24;;;;;;;7.35;3.58;;;;;;;;;;5033568;28;20057;-82
2022/04/19 10:10:56;;;;;;;7.68;3.85;;;;;;;;;;5034289;28;20057;-82
2022/04/19 10:13:25;;;;;;;7.32;3.22;;;;;;;;;;5033962;28;20046;-82
2022/04/19 10:15:55;;;;;;;6.55;3.55;;;;;;;;;;5034298;28;20378;-83
2022/04/19 10:18:24;;;;;;;6.78;4.03;;;;;;;;;;5033272;28;20057;-82
2022/04/19 10:20:56;;;;;;;7.10;3.45;;;;;;;;;;5034482;28;20056;-82
2022/04/19 10:23:34;;;;;;;7.05;3.25;;;;;;;;;;5033442;28;20064;-82
2022/04/19 10:26:13;;;;;;;5.70;3.67;;;;;;;;;;5033993;28;20540;-82
2022/04/19 10:28:42;;;;;;;8.38;3.80;;;;;;;;;;5033297;28;20060;-82
2022/04/19 10:31:13;;;;;;;6.18;3.50;;;;;;;;;;5033601;28;20053;-82
2022/04/19 10:33:44;;;;;;;8.82;3.70;;;;;;;;;;5033569;28;20137;-82
2022/04/19 10:36:14;;;;;;;7.00;3.88;;;;;;;;;;5043190;28;20045;-82
2022/04/19 10:38:42;;;;;;;5.22;3.08;;;;;;;;;;5053304;28;20091;-82
2022/04/19 10:41:11;;;;;;;6.43;3.33;;;;;;;;;;5052766;28;20052;-82
2022/04/19 10:43:39;;;;;;;5.75;3.20;;;;;;;;;;5034197;28;20115;-82
2022/04/19 10:46:19;;;;;;;7.10;3.28;;;;;;;;;;5034174;28;20054;-82
2022/04/19 10:49:06;;;;;;;5.57;3.47;;;;;;;;;;5033350;28;20045;-82
2022/04/19 10:51:35;;;;;;;5.63;3.35;;;;;;;;;;5034126;28;20045;-82
2022/04/19 10:54:03;;;;;;;5.18;3.08;;;;;;;;;;5033659;28;20136;-82
2022/04/19 10:56:32;;;;;;;6.25;3.90;;;;;;;;;;5033557;28;20049;-82
2022/04/19 10:59:20;;;;;;;5.53;3.05;;;;;;;;;;5032969;28;20479;-82
2022/04/19 11:01:50;;;;;;;7.45;3.58;;;;;;;;;;5033570;28;20547;-82
2022/04/19 11:04:34;;;;;;;5.65;3.35;;;;;;;;;;5033746;28;20099;-83
2022/04/19 11:07:02;;;;;;;7.57;3.30;;;;;;;;;;5033310;28;20053;-82
2022/04/19 11:09:31;;;;;;;8.25;4.13;;;;;;;;;;5036585;28;20052;-82
2022/04/19 11:12:10;;;;;;;7.07;3.83;;;;;;;;;;5033531;28;20107;-82
2022/04/19 11:14:40;;;;;;;5.05;2.63;;;;;;;;;;5033011;28;20053;-82
2022/04/19 11:17:23;;;;;;;7.18;3.58;;;;;;;;;;5033505;28;20057;-82
2022/04/19 11:20:14;;;;;;;4.65;2.78;;;;;;;;;;5032530;28;20409;-82
2022/04/19 11:22:46;;;;;;;6.47;3.40;;;;;;;;;;5033207;28;20140;-82
2022/04/19 11:25:15;;;;;;;8.20;3.38;;;;;;;;;;5033437;28;20049;-82
2022/04/19 11:28:02;;;;;;;6.45;3.20;;;;;;;;;;5039334;28;20497;-82
2022/04/19 11:30:30;;;;;;;5.80;3.53;;;;;;;;;;5033037;28;20045;-82
2022/04/19 11:33:01;;;;;;;4.80;3.15;;;;;;;;;;5052538;28;20072;-82
2022/04/19 11:35:32;;;;;;;6.15;3.05;;;;;;;;;;5049900;28;20048;-82
2022/04/19 11:38:04;;;;;;;5.13;2.75;;;;;;;;;;5032359;28;20508;-82
2022/04/19 11:48:56;;;;;;;4.93;2.88;;;;;;;;;;5031917;28;20061;-82
2022/04/19 11:51:25;;;;;;;6.13;2.92;;;;;;;;;;5032914;28;20061;-82
2022/04/19 11:53:53;;;;;;;7.68;3.50;;;;;;;;;;5033233;28;20045;-82
2022/04/19 11:56:22;;;;;;;4.13;2.78;;;;;;;;;;5032785;28;20096;-82
2022/04/19 11:58:52;;;;;;;4.03;2.83;;;;;;;;;;5046808;28;20269;-82
2022/04/19 12:01:21;;;;;;;6.35;3.15;;;;;;;;;;5043085;28;20544;-82
2022/04/19 12:03:50;;;;;;;5.95;3.22;;;;;;;;;;5033015;28;20053;-82
2022/04/19 12:06:21;;;;;;;5.45;3.10;;;;;;;;;;5032141;28;20509;-82
2022/04/19 12:08:51;;;;;;;6.57;3.10;;;;;;;;;;5031251;28;20413;-82
2022/04/19 12:11:21;;;;;;;4.40;2.92;;;;;;;;;;5032488;28;20077;-82
2022/04/19 12:13:50;;;;;;;5.40;3.42;;;;;;;;;;5032606;28;20045;-82
2022/04/19 12:16:38;;;;;;;5.40;2.92;;;;;;;;;;5032240;28;20124;-82
2022/04/19 12:19:08;;;;;;;5.20;2.97;;;;;;;;;;5031832;28;20168;-82
2022/04/19 12:21:39;;;;;;;4.15;2.65;;;;;;;;;;5033038;28;20053;-82
2022/04/19 12:24:08;;;;;;;6.13;3.08;;;;;;;;;;5032302;28;20054;-82
2022/04/19 12:26:37;;;;;;;4.80;2.85;;;;;;;;;;5032561;28;20088;-82
2022/04/19 12:29:13;;;;;;;3.58;2.80;;;;;;;;;;5031033;28;20079;-81
2022/04/19 12:31:44;;;;;;;4.00;2.60;;;;;;;;;;5032730;28;20378;-82
2022/04/19 12:34:13;;;;;;;3.90;2.75;;;;;;;;;;5032416;28;20041;-82
2022/04/19 12:36:44;;;;;;;7.35;3.00;;;;;;;;;;5045819;28;20125;-82
2022/04/19 12:39:13;;;;;;;3.63;2.72;;;;;;;;;;5051530;28;20053;-82
2022/04/19 12:41:44;;;;;;;4.80;2.88;;;;;;;;;;5051613;28;20110;-82
2022/04/19 12:44:13;;;;;;;4.65;2.63;;;;;;;;;;5051416;28;20057;-82
2022/04/19 12:46:42;;;;;;;4.63;2.70;;;;;;;;;;5051669;28;20045;-82
2022/04/19 12:49:21;;;;;;;3.92;2.70;;;;;;;;;;5051449;28;20108;-82
2022/04/19 12:52:01;;;;;;;4.10;2.60;;;;;;;;;;5045504;28;20405;-82
2022/04/19 12:54:30;;;;;;;4.38;2.35;;;;;;;;;;5030732;28;20092;-82
2022/04/19 12:57:01;;;;;;;2.70;2.20;;;;;;;;;;5031800;28;20132;-82
2022/04/19 12:59:30;;;;;;;3.90;2.35;;;;;;;;;;5030962;28;20474;-82
2022/04/19 13:01:59;;;;;;;3.53;2.40;;;;;;;;;;5031663;28;20370;-82
2022/04/19 13:04:29;;;;;;;4.65;2.63;;;;;;;;;;5031670;28;20481;-82
2022/04/19 13:12:32;;;;;;;4.47;2.42;;;;;;;;;;5031881;28;20531;-82
2022/04/19 13:15:03;;;;;;;6.20;2.83;;;;;;;;;;5031254;28;20054;-82
2022/04/19 13:17:32;;;;;;;3.00;2.10;;;;;;;;;;5031620;28;20588;-82
2022/04/19 13:20:02;;;;;;;3.70;2.40;;;;;;;;;;5031235;28;20046;-82
2022/04/19 13:22:31;;;;;;;4.65;2.33;;;;;;;;;;5030738;28;20045;-82
2022/04/19 13:25:01;;;;;;;3.20;2.20;;;;;;;;;;5049264;28;20127;-82
2022/04/19 13:27:33;;;;;;;7.13;2.65;;;;;;;;;;5031795;28;20068;-82
2022/04/19 13:30:02;;;;;;;4.15;2.30;;;;;;;;;;5030720;28;20532;-82
2022/04/19 13:32:32;;;;;;;5.05;2.35;;;;;;;;;;5031087;28;20045;-82
2022/04/19 13:35:01;;;;;;;4.50;2.30;;;;;;;;;;5031420;28;20053;-82
2022/04/19 13:40:22;;;;;;;4.68;2.08;;;;;;;;;;4996921;28;20087;-82
2022/04/19 13:42:51;;;;;;;2.28;1.30;;;;;;;;;;5045393;28;20125;-82
2022/04/19 13:45:20;;;;;;;3.15;1.88;;;;;;;;;;5031262;28;20498;-82
2022/04/19 13:47:49;;;;;;;2.97;1.63;;;;;;;;;;5030691;28;20543;-82
2022/04/19 13:50:19;;;;;;;2.67;1.70;;;;;;;;;;5031710;28;20057;-82
2022/04/19 13:52:47;;;;;;;5.70;1.80;;;;;;;;;;5031468;28;20053;-82
2022/04/19 13:55:18;;;;;;;3.78;1.67;;;;;;;;;;5038992;28;20056;-81
2022/04/19 13:57:49;;;;;;;3.72;1.52;;;;;;;;;;5050457;28;20045;-82
2022/04/19 14:00:18;;;;;;;1.83;1.48;;;;;;;;;;5042481;28;20396;-82
2022/04/19 14:02:46;;;;;;;2.10;1.20;;;;;;;;;;5030609;28;20402;-82
2022/04/19 14:05:16;;;;;;;2.88;1.50;;;;;;;;;;5030989;28;20192;-82
2022/04/19 14:07:44;;;;;;;2.67;1.48;;;;;;;;;;5033230;28;20055;-82
2022/04/19 14:10:13;;;;;;;2.58;1.58;;;;;;;;;;5035128;28;20124;-82
2022/04/19 14:12:46;;;;;;;1.98;1.38;;;;;;;;;;5034065;28;20416;-82
2022/04/19 14:15:17;;;;;;;1.23;1.10;;;;;;;;;;5034585;28;20053;-82
2022/04/19 14:17:46;;;;;;;3.20;1.35;;;;;;;;;;5034016;28;20575;-82
2022/04/19 14:20:16;;;;;;;2.40;1.65;;;;;;;;;;5034886;28;20075;-82
2022/04/19 14:22:44;;;;;;;3.58;1.40;;;;;;;;;;5034345;28;20053;-82
2022/04/19 14:25:13;;;;;;;2.10;1.10;;;;;;;;;;5034736;28;20057;-82
2022/04/19 14:27:42;;;;;;;4.53;1.35;;;;;;;;;;5034577;28;20456;-82
2022/04/19 14:33:18;;;;;;;1.88;1.17;;;;;;;;;;5034613;28;20050;-82
2022/04/19 14:35:48;;;;;;;2.08;1.10;;;;;;;;;;5040469;28;20044;-82
2022/04/19 14:38:17;;;;;;;1.75;0.90;;;;;;;;;;5052745;28;20485;-82
2022/04/19 14:40:46;;;;;;;3.72;2.30;;;;;;;;;;5054330;28;20056;-82
2022/04/19 14:43:15;;;;;;;2.08;1.05;;;;;;;;;;5035839;28;20497;-82
2022/04/19 14:45:44;;;;;;;2.22;1.02;;;;;;;;;;5034626;28;20053;-82
2022/04/19 14:48:15;;;;;;;4.78;1.20;;;;;;;;;;5042083;28;20095;-82
2022/04/19 14:53:34;;;;;;;1.50;1.00;;;;;;;;;;5033735;28;20124;-82
2022/04/19 14:56:04;;;;;;;2.60;1.10;;;;;;;;;;5033927;28;20046;-82
2022/04/19 14:58:33;;;;;;;1.58;1.20;;;;;;;;;;5033212;28;20053;-82
2022/04/19 15:01:06;;;;;;;1.55;1.15;;;;;;;;;;5033570;28;20510;-82
2022/04/19 15:03:36;;;;;;;2.92;1.20;;;;;;;;;;5033901;28;20092;-82
2022/04/19 15:06:08;;;;;;;1.75;1.10;;;;;;;;;;5033779;28;20151;-81
2022/04/19 15:08:36;;;;;;;1.08;0.95;;;;;;;;;;5033073;28;20057;-82
2022/04/19 15:11:08;;;;;;;1.25;0.90;;;;;;;;;;5033521;28;20089;-82
2022/04/19 15:13:37;;;;;;;1.65;1.20;;;;;;;;;;5049814;28;20064;-82
2022/04/19 15:16:07;;;;;;;2.63;1.13;;;;;;;;;;5053344;28;20056;-82
2022/04/19 15:18:37;;;;;;;1.00;0.80;;;;;;;;;;5052900;28;20076;-82
2022/04/19 15:21:09;;;;;;;1.77;1.08;;;;;;;;;;5053584;28;20053;-82
2022/04/19 15:23:38;;;;;;;1.65;1.10;;;;;;;;;;5053305;28;20139;-82
2022/04/19 15:26:06;;;;;;;1.75;0.88;;;;;;;;;;5036774;28;20049;-81
2022/04/19 15:28:35;;;;;;;1.10;0.98;;;;;;;;;;5032799;28;20042;-82
2022/04/19 15:31:07;;;;;;;2.55;1.15;;;;;;;;;;5033304;28;20049;-81
2022/04/19 15:33:35;;;;;;;1.75;1.15;;;;;;;;;;5049517;28;20045;-82
2022/04/19 15:36:08;;;;;;;2.22;1.58;;;;;;;;;;5053472;28;20485;-82
2022/04/19 15:38:36;;;;;;;1.98;1.15;;;;;;;;;;5051530;28;20110;-82
2022/04/19 15:41:08;;;;;;;2.20;0.95;;;;;;;;;;5053000;28;20056;-82
2022/04/19 15:43:37;;;;;;;4.43;1.40;;;;;;;;;;5032655;28;20049;-82
2022/04/19 15:46:09;;;;;;;1.48;1.08;;;;;;;;;;5033104;28;20053;-82
2022/04/19 15:48:37;;;;;;;2.03;0.93;;;;;;;;;;5032348;28;20055;-82
2022/04/19 15:51:11;;;;;;;1.80;1.27;;;;;;;;;;5032550;28;20054;-82
2022/04/19 15:53:40;;;;;;;3.88;1.08;;;;;;;;;;5032405;28;20511;-82
2022/04/19 15:56:09;;;;;;;2.30;1.00;;;;;;;;;;5032404;28;20086;-81